createdAt,value
2022-11-24T00:01:22.245Z,92507.03
2022-11-24T00:04:03.594Z,92500.22
2022-11-24T00:06:34.113Z,92507.38
2022-11-24T00:09:03.488Z,92505.28
2022-11-24T00:11:36.456Z,92516.09
2022-11-24T00:14:06.702Z,92514.56
2022-11-24T00:16:37.660Z,92504.88
2022-11-24T00:19:10.443Z,92505.63
2022-11-24T00:21:39.064Z,92514.97
2022-11-24T00:24:07.782Z,92521.22
2022-11-24T00:26:40.550Z,92518.34
2022-11-24T00:29:10.882Z,92524.91
2022-11-24T00:31:42.190Z,92516.41
2022-11-24T00:34:13.621Z,92531.38
2022-11-24T00:36:44.957Z,92529.28
2022-11-24T00:39:16.016Z,92529.69
2022-11-24T00:44:25.819Z,92541.38
2022-11-24T00:58:51.219Z,92547.75
2022-11-24T01:01:37.940Z,92543.03
2022-11-24T01:04:06.655Z,92550.34
2022-11-24T01:06:37.421Z,92554.69
2022-11-24T01:09:05.479Z,92543.00
2022-11-24T01:11:54.786Z,92550.19
2022-11-24T01:14:26.768Z,92547.22
2022-11-24T01:16:55.591Z,92551.22
2022-11-24T01:19:26.406Z,92556.88
2022-11-24T01:21:54.372Z,92557.78
2022-11-24T01:24:22.521Z,92555.78
2022-11-24T01:26:59.826Z,92556.63
2022-11-24T01:29:27.859Z,92552.91
2022-11-24T01:31:56.123Z,92547.97
2022-11-24T01:34:28.136Z,92546.28
2022-11-24T01:42:14.870Z,92535.63
2022-11-24T01:55:13.152Z,92541.97
2022-11-24T01:57:31.964Z,92543.19
2022-11-24T02:00:08.643Z,92541.63
2022-11-24T02:02:45.179Z,92548.91
2022-11-24T02:05:29.728Z,92546.59
2022-11-24T02:08:02.390Z,92550.38
2022-11-24T02:10:30.636Z,92554.06
2022-11-24T02:13:02.009Z,92553.16
2022-11-24T02:15:30.260Z,92535.59
2022-11-24T02:17:59.583Z,92551.03
2022-11-24T02:20:27.824Z,92556.56
2022-11-24T02:23:25.819Z,92557.94
2022-11-24T02:26:28.668Z,92555.00
2022-11-24T02:28:57.388Z,92557.72
2022-11-24T02:31:25.930Z,92548.66
2022-11-24T02:33:56.236Z,92560.81
2022-11-24T02:36:26.589Z,92559.06
2022-11-24T02:40:16.918Z,92564.06
2022-11-24T02:51:39.659Z,92562.41
2022-11-24T02:53:52.332Z,92572.03
2022-11-24T02:56:20.307Z,92560.13
2022-11-24T03:01:35.341Z,92558.91
2022-11-24T03:04:03.704Z,92560.97
2022-11-24T03:06:31.543Z,92557.97
2022-11-24T03:08:59.431Z,92556.25
2022-11-24T03:11:27.308Z,92557.72
2022-11-24T03:13:55.299Z,92560.34
2022-11-24T03:16:23.272Z,92556.88
2022-11-24T03:18:52.039Z,92562.03
2022-11-24T03:21:20.669Z,92557.88
2022-11-24T03:23:48.488Z,92564.78
2022-11-24T03:26:18.976Z,92569.75
2022-11-24T03:28:47.265Z,92572.78
2022-11-24T03:31:15.537Z,92572.88
2022-11-24T03:33:43.592Z,92570.06
2022-11-24T03:36:11.668Z,92580.94
2022-11-24T03:38:39.497Z,92581.75
2022-11-24T03:41:07.582Z,92587.47
2022-11-24T03:43:40.411Z,92583.09
2022-11-24T03:46:12.490Z,92586.41
2022-11-24T03:48:40.673Z,92586.28
2022-11-24T03:51:08.600Z,92579.03
2022-11-24T03:53:36.469Z,92590.72
2022-11-24T03:56:04.687Z,92590.06
2022-11-24T03:58:32.887Z,92600.69
2022-11-24T04:01:00.728Z,92598.22
2022-11-24T04:03:28.754Z,92595.78
2022-11-24T04:05:56.961Z,92605.09
2022-11-24T04:08:25.303Z,92610.38
2022-11-24T04:10:54.624Z,92615.91
2022-11-24T04:13:24.787Z,92620.47
2022-11-24T04:15:53.195Z,92608.03
2022-11-24T04:18:21.297Z,92618.88
2022-11-24T04:20:51.425Z,92615.22
2022-11-24T04:23:19.480Z,92614.22
2022-11-24T04:25:47.416Z,92620.63
2022-11-24T04:28:15.411Z,92614.44
2022-11-24T04:30:45.119Z,92620.03
2022-11-24T04:33:13.746Z,92623.22
2022-11-24T04:35:41.604Z,92628.28
2022-11-24T04:38:09.621Z,92618.78
2022-11-24T04:40:38.437Z,92624.22
2022-11-24T04:43:06.465Z,92626.41
2022-11-24T04:45:34.478Z,92638.66
2022-11-24T04:48:02.577Z,92633.50
2022-11-24T04:50:30.808Z,92640.75
2022-11-24T04:52:58.929Z,92641.91
2022-11-24T04:55:27.195Z,92637.19
2022-11-24T04:57:55.297Z,92638.19
2022-11-24T05:00:23.270Z,92645.06
2022-11-24T05:02:51.250Z,92649.19
2022-11-24T05:05:19.232Z,92651.41
2022-11-24T05:07:47.045Z,92650.38
2022-11-24T05:10:33.473Z,92657.38
2022-11-24T05:13:03.223Z,92660.91
2022-11-24T05:15:31.185Z,92659.09
2022-11-24T05:17:59.493Z,92657.91
2022-11-24T05:20:27.411Z,92659.78
2022-11-24T05:22:55.427Z,92662.47
2022-11-24T05:25:23.536Z,92664.97
2022-11-24T05:27:51.878Z,92666.69
2022-11-24T05:30:19.925Z,92671.19
2022-11-24T05:32:47.857Z,92669.66
2022-11-24T05:35:16.268Z,92678.41
2022-11-24T05:37:44.270Z,92678.53
2022-11-24T05:40:12.451Z,92680.56
2022-11-24T05:42:47.679Z,92681.94
2022-11-24T05:45:19.320Z,92688.34
2022-11-24T05:47:49.477Z,92693.41
2022-11-24T05:50:19.813Z,92699.16
2022-11-24T05:52:50.563Z,92695.13
2022-11-24T05:55:19.752Z,92693.63
2022-11-24T05:57:58.589Z,92694.78
2022-11-24T06:00:26.887Z,92693.88
2022-11-24T06:02:55.169Z,92691.88
2022-11-24T06:05:23.316Z,92695.19
2022-11-24T06:07:52.469Z,92698.47
2022-11-24T06:10:22.445Z,92695.56
2022-11-24T06:12:51.161Z,92685.28
2022-11-24T06:15:19.059Z,92701.84
2022-11-24T06:17:56.891Z,92701.69
2022-11-24T06:20:29.906Z,92695.22
2022-11-24T06:23:01.360Z,92698.06
2022-11-24T06:25:29.726Z,92708.72
2022-11-24T06:27:57.809Z,92709.47
2022-11-24T06:30:25.705Z,92710.22
2022-11-24T06:32:56.467Z,92713.09
2022-11-24T06:35:24.427Z,92716.72
2022-11-24T06:37:52.401Z,92722.44
2022-11-24T06:40:22.584Z,92729.94
2022-11-24T06:42:54.282Z,92729.63
2022-11-24T06:45:23.648Z,92731.34
2022-11-24T06:47:55.035Z,92737.78
2022-11-24T06:50:25.215Z,92737.94
2022-11-24T06:52:55.386Z,92733.13
2022-11-24T06:55:23.388Z,92741.91
2022-11-24T06:57:51.316Z,92743.31
2022-11-24T07:00:19.661Z,92739.94
2022-11-24T07:02:48.464Z,92729.19
2022-11-24T07:05:16.587Z,92737.44
2022-11-24T07:07:44.716Z,92736.38
2022-11-24T07:10:13.105Z,92743.00
2022-11-24T07:12:41.099Z,92741.03
2022-11-24T07:15:09.888Z,92745.28
2022-11-24T07:17:41.095Z,92740.44
2022-11-24T07:20:09.743Z,92741.91
2022-11-24T07:22:37.721Z,92746.25
2022-11-24T07:25:07.645Z,92746.81
2022-11-24T07:27:36.102Z,92745.41
2022-11-24T07:30:04.730Z,92745.75
2022-11-24T07:32:33.215Z,92740.22
2022-11-24T07:35:01.079Z,92750.00
2022-11-24T07:37:31.525Z,92754.38
2022-11-24T07:39:59.800Z,92756.59
2022-11-24T07:42:28.157Z,92737.56
2022-11-24T07:44:56.010Z,92750.34
2022-11-24T07:47:23.979Z,92757.22
2022-11-24T07:49:52.095Z,92760.53
2022-11-24T07:52:20.050Z,92762.13
2022-11-24T07:54:48.157Z,92759.47
2022-11-24T07:57:16.014Z,92761.22
2022-11-24T07:59:43.945Z,92764.09
2022-11-24T08:02:13.562Z,92769.34
2022-11-24T08:04:41.544Z,92767.59
2022-11-24T08:07:09.457Z,92773.00
2022-11-24T08:09:37.522Z,92773.03
2022-11-24T08:12:05.736Z,92773.81
2022-11-24T08:14:33.928Z,92777.00
2022-11-24T08:17:02.082Z,92785.22
2022-11-24T08:19:30.004Z,92777.72
2022-11-24T08:21:58.108Z,92789.34
2022-11-24T08:24:27.477Z,92800.97
2022-11-24T08:26:55.363Z,92800.34
2022-11-24T08:29:23.377Z,92799.94
2022-11-24T08:31:51.422Z,92805.44
2022-11-24T08:34:19.324Z,92817.97
2022-11-24T08:36:47.337Z,92809.25
2022-11-24T08:39:15.250Z,92823.56
2022-11-24T08:41:43.316Z,92817.16
2022-11-24T08:44:11.444Z,92822.69
2022-11-24T08:46:39.515Z,92825.53
2022-11-24T08:49:07.793Z,92815.56
2022-11-24T08:51:35.797Z,92834.53
2022-11-24T08:54:03.845Z,92837.84
2022-11-24T08:56:33.329Z,92841.28
2022-11-24T08:59:02.065Z,92834.22
2022-11-24T09:01:30.400Z,92852.44
2022-11-24T09:03:58.580Z,92852.63
2022-11-24T09:06:31.126Z,92851.44
2022-11-24T09:09:00.243Z,92854.72
2022-11-24T09:11:29.303Z,92864.84
2022-11-24T09:13:57.555Z,92859.72
2022-11-24T09:16:28.153Z,92866.50
2022-11-24T09:19:04.987Z,92864.00
2022-11-24T09:21:34.635Z,92877.09
2022-11-24T09:24:02.769Z,92872.03
2022-11-24T09:26:33.901Z,92870.28
2022-11-24T09:29:03.962Z,92866.50
2022-11-24T09:31:34.709Z,92870.84
2022-11-24T09:34:05.690Z,92869.38
2022-11-24T09:36:33.985Z,92873.09
2022-11-24T09:39:02.194Z,92869.47
2022-11-24T09:41:56.294Z,92863.22
2022-11-24T09:44:51.329Z,92863.22
2022-11-24T09:47:59.488Z,92864.66
2022-11-24T09:50:33.524Z,92872.75
2022-11-24T09:53:11.398Z,92867.47
2022-11-24T09:55:51.577Z,92877.59
2022-11-24T09:58:46.017Z,92875.00
2022-11-24T10:01:19.522Z,92874.91
2022-11-24T10:03:52.253Z,92882.84
2022-11-24T10:06:30.847Z,92887.19
2022-11-24T10:09:16.441Z,92878.44
2022-11-24T10:12:14.160Z,92881.09
2022-11-24T10:14:50.821Z,92883.09
2022-11-24T10:17:21.503Z,92876.75
2022-11-24T10:20:09.136Z,92883.41
2022-11-24T10:23:04.384Z,92875.56
2022-11-24T10:25:41.237Z,92879.38
2022-11-24T10:28:15.769Z,92870.00
2022-11-24T10:30:44.130Z,92871.22
2022-11-24T10:33:28.781Z,92873.75
2022-11-24T10:36:08.314Z,92875.22
2022-11-24T10:38:40.864Z,92876.13
2022-11-24T10:41:17.017Z,92878.09
2022-11-24T10:43:45.116Z,92875.94
2022-11-24T10:46:24.743Z,92879.72
2022-11-24T10:49:00.665Z,92883.56
2022-11-24T10:51:51.265Z,92874.88
2022-11-24T10:54:22.767Z,92884.91
2022-11-24T10:56:53.171Z,92883.91
2022-11-24T10:59:36.738Z,92888.97
2022-11-24T11:02:38.849Z,92891.19
2022-11-24T11:05:38.276Z,92889.03
2022-11-24T11:08:20.159Z,92881.72
2022-11-24T11:11:14.569Z,92884.31
2022-11-24T11:14:01.614Z,92883.19
2022-11-24T11:16:37.545Z,92886.06
2022-11-24T11:20:00.089Z,92888.94
2022-11-24T11:22:32.104Z,92891.91
2022-11-24T11:25:03.004Z,92882.84
2022-11-24T11:27:31.013Z,92884.78
2022-11-24T11:36:16.138Z,92897.38
2022-11-24T11:38:45.189Z,92894.41
2022-11-24T11:41:36.214Z,92900.31
2022-11-24T11:44:26.853Z,92896.97
2022-11-24T11:46:57.205Z,92895.09
2022-11-24T11:49:25.424Z,92889.66
2022-11-24T11:52:08.383Z,92891.25
2022-11-24T11:55:02.886Z,92896.91
2022-11-24T11:57:47.082Z,92899.72
2022-11-24T12:00:22.204Z,92890.91
2022-11-24T12:03:27.340Z,92903.50
2022-11-24T12:06:53.120Z,92897.13
2022-11-24T12:09:56.049Z,92908.81
2022-11-24T12:12:31.801Z,92912.81
2022-11-24T12:15:37.701Z,92913.88
2022-11-24T12:18:49.025Z,92911.56
2022-11-24T12:21:25.966Z,92919.34
2022-11-24T12:24:10.003Z,92914.28
2022-11-24T12:26:52.681Z,92917.34
2022-11-24T12:29:26.588Z,92922.72
2022-11-24T12:32:31.421Z,92930.91
2022-11-24T12:35:54.902Z,92920.47
2022-11-24T12:38:56.041Z,92926.09
2022-11-24T12:41:41.562Z,92921.78
2022-11-24T12:44:37.937Z,92909.72
2022-11-24T12:47:20.133Z,92928.69
2022-11-24T12:50:12.987Z,92932.38
2022-11-24T12:53:04.311Z,92932.59
2022-11-24T12:55:34.291Z,92933.56
2022-11-24T12:58:14.897Z,92928.59
2022-11-24T13:01:32.557Z,92920.25
2022-11-24T13:04:15.670Z,92920.19
2022-11-24T13:06:49.286Z,92913.84
2022-11-24T13:09:17.989Z,92921.53
2022-11-24T13:11:53.286Z,92914.72
2022-11-24T13:14:36.138Z,92913.41
2022-11-24T13:17:40.593Z,92909.25
2022-11-24T13:20:21.873Z,92920.41
2022-11-24T13:22:54.269Z,92930.06
2022-11-24T13:25:41.047Z,92938.22
2022-11-24T13:29:03.218Z,92929.56
2022-11-24T13:31:34.738Z,92935.41
2022-11-24T13:34:46.100Z,92937.66
2022-11-24T13:37:45.817Z,92942.72
2022-11-24T13:40:13.776Z,92947.69
2022-11-24T13:42:57.513Z,92946.56
2022-11-24T13:45:45.334Z,92959.66
2022-11-24T13:48:19.480Z,92950.75
2022-11-24T13:50:50.666Z,92960.78
2022-11-24T13:53:36.497Z,92960.91
2022-11-24T13:56:13.833Z,92953.22
2022-11-24T13:58:45.235Z,92960.03
2022-11-24T14:01:32.676Z,92959.91
2022-11-24T14:06:59.020Z,92959.06
2022-11-24T14:09:37.713Z,92963.66
2022-11-24T14:12:14.882Z,92968.56
2022-11-24T14:14:44.714Z,92972.41
2022-11-24T14:17:23.224Z,92978.75
2022-11-24T14:19:56.531Z,92976.59
2022-11-24T14:22:33.884Z,92975.16
2022-11-24T14:25:02.922Z,92969.94
2022-11-24T14:27:34.584Z,92961.84
2022-11-24T14:30:18.273Z,92964.63
2022-11-24T14:33:01.133Z,92966.97
2022-11-24T14:35:35.095Z,92961.56
2022-11-24T14:38:05.891Z,92956.19
2022-11-24T14:40:50.024Z,92962.75
2022-11-24T14:43:25.981Z,92971.97
2022-11-24T14:45:55.742Z,92973.34
2022-11-24T14:48:30.794Z,92965.78
2022-11-24T14:51:14.927Z,92980.25
2022-11-24T14:53:45.694Z,92976.22
2022-11-24T14:57:04.341Z,92982.34
2022-11-24T14:59:38.254Z,92979.00
2022-11-24T15:02:38.643Z,92973.72
2022-11-24T15:05:07.271Z,92982.91
2022-11-24T15:07:38.914Z,92981.63
2022-11-24T15:10:20.494Z,92983.81
2022-11-24T15:12:58.717Z,92973.97
2022-11-24T15:15:34.090Z,92973.59
2022-11-24T15:18:04.704Z,92983.81
2022-11-24T15:20:46.434Z,93003.34
2022-11-24T15:23:24.892Z,92997.97
2022-11-24T15:26:01.582Z,92998.28
2022-11-24T15:28:31.202Z,93020.34
2022-11-24T15:31:14.450Z,93003.81
2022-11-24T15:33:42.764Z,93026.22
2022-11-24T15:36:12.583Z,93022.88
2022-11-24T15:38:40.577Z,93029.88
2022-11-24T15:41:21.076Z,93035.31
2022-11-24T15:43:49.423Z,93042.97
2022-11-24T15:46:17.801Z,93032.63
2022-11-24T15:48:46.501Z,93040.78
2022-11-24T15:51:15.247Z,93045.84
2022-11-24T15:53:49.724Z,93038.16
2022-11-24T15:56:33.305Z,93044.22
2022-11-24T15:59:02.443Z,93035.38
2022-11-24T16:01:33.370Z,93044.81
2022-11-24T16:04:02.666Z,93045.16
2022-11-24T16:06:31.284Z,93035.81
2022-11-24T16:09:00.062Z,93031.69
2022-11-24T16:11:28.418Z,93035.25
2022-11-24T16:13:57.120Z,93040.09
2022-11-24T16:16:25.626Z,93042.03
2022-11-24T16:18:54.390Z,93036.75
2022-11-24T16:21:23.715Z,93040.53
2022-11-24T16:23:52.251Z,93046.97
2022-11-24T16:26:20.436Z,93047.53
2022-11-24T16:28:48.992Z,93032.81
2022-11-24T16:31:18.434Z,93040.88
2022-11-24T16:33:47.221Z,93042.03
2022-11-24T16:36:15.852Z,93049.53
2022-11-24T16:38:44.558Z,93052.47
2022-11-24T16:41:13.396Z,93051.59
2022-11-24T16:43:41.930Z,93055.41
2022-11-24T16:46:23.166Z,93056.78
2022-11-24T17:28:24.555Z,93065.47
2022-11-24T18:39:24.317Z,93087.56
2022-11-24T18:48:22.067Z,93104.94
2022-11-24T18:57:10.466Z,93099.78
2022-11-24T18:59:46.156Z,93108.28
2022-11-24T19:10:27.441Z,93101.25
2022-11-24T19:15:38.637Z,93102.63
2022-11-24T19:31:41.253Z,93100.78
2022-11-24T19:36:57.844Z,93118.28
2022-11-24T19:52:56.920Z,93120.78
2022-11-24T19:55:30.766Z,93120.13
2022-11-24T20:00:51.393Z,93129.53
2022-11-24T20:03:30.118Z,93128.59
2022-11-24T20:19:41.631Z,93123.31
2022-11-24T20:44:10.192Z,93134.38
2022-11-24T20:57:31.878Z,93142.91
2022-11-24T21:02:48.310Z,93144.84
2022-11-24T21:16:16.496Z,93168.09
2022-11-24T21:18:56.004Z,93171.88
2022-11-24T21:21:25.850Z,93164.41
2022-11-24T21:32:14.506Z,93167.16
2022-11-24T21:37:24.162Z,93170.63
2022-11-24T21:39:52.599Z,93179.81
2022-11-24T21:42:20.483Z,93173.72
2022-11-24T21:47:30.531Z,93176.38
2022-11-24T21:50:01.044Z,93164.03
2022-11-24T21:52:28.954Z,93175.41
2022-11-24T21:54:56.985Z,93165.22
2022-11-24T21:57:27.280Z,93164.63
2022-11-24T21:59:55.241Z,93166.09
2022-11-24T22:05:05.668Z,93160.22
2022-11-24T22:07:42.772Z,93159.59
2022-11-24T22:10:11.009Z,93162.28
2022-11-24T22:12:38.782Z,93163.94
2022-11-24T22:15:07.111Z,93169.22
2022-11-24T22:17:35.022Z,93170.75
2022-11-24T22:20:02.926Z,93169.00
2022-11-24T22:22:30.759Z,93177.63
2022-11-24T22:24:58.912Z,93176.03
2022-11-24T22:27:26.812Z,93175.31
2022-11-24T22:29:54.853Z,93183.97
2022-11-24T22:32:23.022Z,93175.78
2022-11-24T22:34:51.285Z,93186.09
2022-11-24T22:37:20.388Z,93182.19
2022-11-24T22:42:30.668Z,93176.34
2022-11-24T22:44:59.771Z,93189.56
2022-11-24T22:47:30.013Z,93171.84
2022-11-24T22:50:01.048Z,93181.38
2022-11-24T22:52:30.062Z,93190.72
2022-11-24T22:55:02.902Z,93192.53
2022-11-24T22:57:30.751Z,93188.28
2022-11-24T23:00:00.099Z,93200.09
2022-11-24T23:02:29.298Z,93192.53
2022-11-24T23:04:57.681Z,93191.72
2022-11-24T23:10:10.563Z,93195.50
2022-11-24T23:12:47.974Z,93190.91
2022-11-24T23:15:16.218Z,93196.88
2022-11-24T23:17:46.444Z,93209.41
2022-11-24T23:20:14.592Z,93202.84
2022-11-24T23:22:42.413Z,93186.63
2022-11-24T23:25:10.775Z,93198.78
2022-11-24T23:27:38.669Z,93206.94
2022-11-24T23:30:07.692Z,93196.28
2022-11-24T23:32:35.620Z,93208.75
2022-11-24T23:35:03.593Z,93204.66
2022-11-24T23:37:52.090Z,93198.97
2022-11-24T23:40:21.836Z,93210.13
2022-11-24T23:42:57.719Z,93201.25
2022-11-24T23:45:26.192Z,93214.41
2022-11-24T23:48:03.547Z,93210.91
2022-11-24T23:50:36.104Z,93216.44
2022-11-24T23:53:04.440Z,93203.81
2022-11-24T23:55:33.278Z,93212.09
2022-11-24T23:58:01.164Z,93208.88
